sensor_id;sensor_type;location;lat;lon;timestamp;P1;durP1;ratioP1;P2;durP2;ratioP2
15474;SDS011;7839;50.462;9.678;2023-06-26T00:04:08;1.75;;;1.65;;
15474;SDS011;7839;50.462;9.678;2023-06-26T00:10:54;1.63;;;1.52;;
15474;SDS011;7839;50.462;9.678;2023-06-26T00:17:34;1.90;;;1.80;;
15474;SDS011;7839;50.462;9.678;2023-06-26T00:24:17;1.70;;;1.60;;
15474;SDS011;7839;50.462;9.678;2023-06-26T00:30:57;1.80;;;1.70;;
15474;SDS011;7839;50.462;9.678;2023-06-26T00:37:38;1.77;;;1.67;;
15474;SDS011;7839;50.462;9.678;2023-06-26T00:44:18;1.63;;;1.52;;
15474;SDS011;7839;50.462;9.678;2023-06-26T00:50:58;1.98;;;1.60;;
15474;SDS011;7839;50.462;9.678;2023-06-26T00:57:39;1.33;;;1.33;;
15474;SDS011;7839;50.462;9.678;2023-06-26T01:04:19;1.38;;;1.38;;
15474;SDS011;7839;50.462;9.678;2023-06-26T01:11:00;1.27;;;1.17;;
15474;SDS011;7839;50.462;9.678;2023-06-26T01:17:40;1.60;;;1.50;;
15474;SDS011;7839;50.462;9.678;2023-06-26T01:24:25;1.83;;;1.73;;
15474;SDS011;7839;50.462;9.678;2023-06-26T01:31:12;1.27;;;1.27;;
15474;SDS011;7839;50.462;9.678;2023-06-26T01:37:53;1.45;;;1.35;;
15474;SDS011;7839;50.462;9.678;2023-06-26T01:44:34;1.40;;;1.40;;
15474;SDS011;7839;50.462;9.678;2023-06-26T01:51:15;1.58;;;1.48;;
15474;SDS011;7839;50.462;9.678;2023-06-26T01:57:57;1.30;;;1.30;;
15474;SDS011;7839;50.462;9.678;2023-06-26T02:04:38;1.25;;;1.23;;
15474;SDS011;7839;50.462;9.678;2023-06-26T02:11:18;1.30;;;1.30;;
15474;SDS011;7839;50.462;9.678;2023-06-26T02:17:58;1.50;;;1.40;;
15474;SDS011;7839;50.462;9.678;2023-06-26T02:24:39;0.90;;;0.90;;
15474;SDS011;7839;50.462;9.678;2023-06-26T02:31:19;1.17;;;1.10;;
15474;SDS011;7839;50.462;9.678;2023-06-26T02:37:59;1.05;;;1.05;;
15474;SDS011;7839;50.462;9.678;2023-06-26T02:44:40;1.20;;;1.20;;
15474;SDS011;7839;50.462;9.678;2023-06-26T02:51:21;1.00;;;1.00;;
15474;SDS011;7839;50.462;9.678;2023-06-26T02:58:01;1.17;;;1.15;;
15474;SDS011;7839;50.462;9.678;2023-06-26T03:04:41;1.20;;;1.20;;
15474;SDS011;7839;50.462;9.678;2023-06-26T03:11:23;0.88;;;0.88;;
15474;SDS011;7839;50.462;9.678;2023-06-26T03:18:03;1.10;;;1.10;;
15474;SDS011;7839;50.462;9.678;2023-06-26T03:24:43;1.20;;;1.10;;
15474;SDS011;7839;50.462;9.678;2023-06-26T03:31:24;1.20;;;1.17;;
15474;SDS011;7839;50.462;9.678;2023-06-26T03:38:04;1.08;;;1.08;;
15474;SDS011;7839;50.462;9.678;2023-06-26T03:44:45;1.20;;;1.10;;
15474;SDS011;7839;50.462;9.678;2023-06-26T03:51:25;1.00;;;1.00;;
15474;SDS011;7839;50.462;9.678;2023-06-26T03:58:06;0.98;;;0.98;;
15474;SDS011;7839;50.462;9.678;2023-06-26T04:04:46;0.95;;;0.95;;
15474;SDS011;7839;50.462;9.678;2023-06-26T04:11:26;1.08;;;1.08;;
15474;SDS011;7839;50.462;9.678;2023-06-26T04:18:07;1.00;;;1.00;;
15474;SDS011;7839;50.462;9.678;2023-06-26T04:24:47;0.90;;;0.90;;
15474;SDS011;7839;50.462;9.678;2023-06-26T04:31:27;1.10;;;1.10;;
15474;SDS011;7839;50.462;9.678;2023-06-26T04:38:07;0.80;;;0.80;;
15474;SDS011;7839;50.462;9.678;2023-06-26T04:44:49;1.10;;;1.10;;
15474;SDS011;7839;50.462;9.678;2023-06-26T04:51:29;1.08;;;1.08;;
15474;SDS011;7839;50.462;9.678;2023-06-26T04:58:11;1.52;;;1.00;;
15474;SDS011;7839;50.462;9.678;2023-06-26T05:04:52;1.10;;;1.10;;
15474;SDS011;7839;50.462;9.678;2023-06-26T05:11:32;0.93;;;0.93;;
15474;SDS011;7839;50.462;9.678;2023-06-26T05:18:12;1.00;;;1.00;;
15474;SDS011;7839;50.462;9.678;2023-06-26T05:24:53;1.20;;;1.20;;
15474;SDS011;7839;50.462;9.678;2023-06-26T05:31:34;1.15;;;1.15;;
15474;SDS011;7839;50.462;9.678;2023-06-26T05:38:16;1.30;;;1.30;;
15474;SDS011;7839;50.462;9.678;2023-06-26T05:44:56;0.90;;;0.90;;
15474;SDS011;7839;50.462;9.678;2023-06-26T05:51:37;1.23;;;1.13;;
15474;SDS011;7839;50.462;9.678;2023-06-26T05:58:17;1.27;;;1.20;;
15474;SDS011;7839;50.462;9.678;2023-06-26T06:04:58;6.07;;;5.20;;
15474;SDS011;7839;50.462;9.678;2023-06-26T06:11:39;5.38;;;4.97;;
15474;SDS011;7839;50.462;9.678;2023-06-26T06:18:20;1.10;;;1.10;;
15474;SDS011;7839;50.462;9.678;2023-06-26T06:25:01;2.58;;;2.47;;
15474;SDS011;7839;50.462;9.678;2023-06-26T06:31:41;6.32;;;5.78;;
15474;SDS011;7839;50.462;9.678;2023-06-26T06:38:21;6.45;;;5.75;;
15474;SDS011;7839;50.462;9.678;2023-06-26T06:45:02;1.30;;;1.30;;
15474;SDS011;7839;50.462;9.678;2023-06-26T06:51:42;1.20;;;1.20;;
15474;SDS011;7839;50.462;9.678;2023-06-26T06:58:23;1.42;;;1.33;;
15474;SDS011;7839;50.462;9.678;2023-06-26T07:05:03;1.67;;;1.58;;
15474;SDS011;7839;50.462;9.678;2023-06-26T07:11:44;1.55;;;1.48;;
15474;SDS011;7839;50.462;9.678;2023-06-26T07:18:24;2.08;;;1.98;;
15474;SDS011;7839;50.462;9.678;2023-06-26T07:25:04;2.45;;;2.25;;
15474;SDS011;7839;50.462;9.678;2023-06-26T07:31:49;3.20;;;2.90;;
15474;SDS011;7839;50.462;9.678;2023-06-26T07:38:29;3.80;;;3.50;;
15474;SDS011;7839;50.462;9.678;2023-06-26T07:45:09;3.85;;;3.55;;
15474;SDS011;7839;50.462;9.678;2023-06-26T07:51:50;5.05;;;4.65;;
15474;SDS011;7839;50.462;9.678;2023-06-26T07:58:31;4.78;;;4.38;;
15474;SDS011;7839;50.462;9.678;2023-06-26T08:05:11;4.78;;;4.47;;
15474;SDS011;7839;50.462;9.678;2023-06-26T08:11:51;4.65;;;4.35;;
15474;SDS011;7839;50.462;9.678;2023-06-26T08:18:32;4.95;;;4.50;;
15474;SDS011;7839;50.462;9.678;2023-06-26T08:25:12;4.60;;;4.30;;
15474;SDS011;7839;50.462;9.678;2023-06-26T08:31:52;4.55;;;4.25;;
15474;SDS011;7839;50.462;9.678;2023-06-26T08:38:32;4.78;;;4.38;;
15474;SDS011;7839;50.462;9.678;2023-06-26T08:45:13;4.97;;;4.57;;
15474;SDS011;7839;50.462;9.678;2023-06-26T08:51:57;4.95;;;4.55;;
15474;SDS011;7839;50.462;9.678;2023-06-26T08:58:38;4.80;;;4.50;;
15474;SDS011;7839;50.462;9.678;2023-06-26T09:05:18;4.95;;;4.53;;
15474;SDS011;7839;50.462;9.678;2023-06-26T09:12:00;5.22;;;4.82;;
15474;SDS011;7839;50.462;9.678;2023-06-26T09:18:41;4.90;;;4.50;;
15474;SDS011;7839;50.462;9.678;2023-06-26T09:25:24;5.45;;;4.95;;
15474;SDS011;7839;50.462;9.678;2023-06-26T09:32:04;5.97;;;5.38;;
15474;SDS011;7839;50.462;9.678;2023-06-26T09:38:45;6.03;;;5.43;;
15474;SDS011;7839;50.462;9.678;2023-06-26T09:45:25;5.53;;;5.13;;
15474;SDS011;7839;50.462;9.678;2023-06-26T09:52:05;5.43;;;4.97;;
15474;SDS011;7839;50.462;9.678;2023-06-26T09:58:46;5.35;;;4.95;;
15474;SDS011;7839;50.462;9.678;2023-06-26T10:05:28;5.57;;;5.07;;
15474;SDS011;7839;50.462;9.678;2023-06-26T10:12:11;5.32;;;4.93;;
15474;SDS011;7839;50.462;9.678;2023-06-26T10:18:58;4.38;;;3.97;;
15474;SDS011;7839;50.462;9.678;2023-06-26T10:25:42;7.03;;;5.28;;
15474;SDS011;7839;50.462;9.678;2023-06-26T10:32:24;5.05;;;4.55;;
15474;SDS011;7839;50.462;9.678;2023-06-26T10:39:05;5.03;;;4.57;;
15474;SDS011;7839;50.462;9.678;2023-06-26T10:45:47;5.68;;;5.18;;
15474;SDS011;7839;50.462;9.678;2023-06-26T10:52:36;5.57;;;5.18;;
15474;SDS011;7839;50.462;9.678;2023-06-26T10:59:19;6.57;;;5.95;;
15474;SDS011;7839;50.462;9.678;2023-06-26T11:06:10;6.55;;;5.95;;
15474;SDS011;7839;50.462;9.678;2023-06-26T11:12:53;6.25;;;5.65;;
15474;SDS011;7839;50.462;9.678;2023-06-26T11:19:34;5.20;;;4.80;;
15474;SDS011;7839;50.462;9.678;2023-06-26T11:26:18;6.43;;;5.82;;
15474;SDS011;7839;50.462;9.678;2023-06-26T11:33:06;6.40;;;5.80;;
15474;SDS011;7839;50.462;9.678;2023-06-26T11:39:47;6.78;;;6.18;;
15474;SDS011;7839;50.462;9.678;2023-06-26T11:46:27;6.70;;;6.10;;
15474;SDS011;7839;50.462;9.678;2023-06-26T11:53:07;6.45;;;5.85;;
15474;SDS011;7839;50.462;9.678;2023-06-26T11:59:49;6.15;;;5.65;;
15474;SDS011;7839;50.462;9.678;2023-06-26T12:06:30;6.00;;;5.50;;
15474;SDS011;7839;50.462;9.678;2023-06-26T12:13:11;5.30;;;4.90;;
15474;SDS011;7839;50.462;9.678;2023-06-26T12:19:51;5.80;;;5.30;;
15474;SDS011;7839;50.462;9.678;2023-06-26T12:26:32;6.05;;;5.55;;
15474;SDS011;7839;50.462;9.678;2023-06-26T12:33:16;5.90;;;5.25;;
15474;SDS011;7839;50.462;9.678;2023-06-26T12:39:57;5.97;;;5.38;;
15474;SDS011;7839;50.462;9.678;2023-06-26T12:46:37;5.63;;;5.15;;
15474;SDS011;7839;50.462;9.678;2023-06-26T12:53:18;5.63;;;5.13;;
15474;SDS011;7839;50.462;9.678;2023-06-26T12:59:58;6.63;;;5.07;;
15474;SDS011;7839;50.462;9.678;2023-06-26T13:06:39;5.10;;;4.70;;
15474;SDS011;7839;50.462;9.678;2023-06-26T13:13:19;5.45;;;4.95;;
15474;SDS011;7839;50.462;9.678;2023-06-26T13:19:59;4.85;;;4.50;;
15474;SDS011;7839;50.462;9.678;2023-06-26T13:26:40;4.88;;;4.47;;
15474;SDS011;7839;50.462;9.678;2023-06-26T13:33:20;5.25;;;4.75;;
15474;SDS011;7839;50.462;9.678;2023-06-26T13:40:00;6.43;;;5.63;;
15474;SDS011;7839;50.462;9.678;2023-06-26T13:46:42;5.25;;;4.70;;
15474;SDS011;7839;50.462;9.678;2023-06-26T13:53:22;6.90;;;5.55;;
15474;SDS011;7839;50.462;9.678;2023-06-26T14:00:02;6.13;;;5.68;;
15474;SDS011;7839;50.462;9.678;2023-06-26T14:06:43;7.70;;;6.13;;
15474;SDS011;7839;50.462;9.678;2023-06-26T14:13:25;7.28;;;6.45;;
15474;SDS011;7839;50.462;9.678;2023-06-26T14:20:08;7.35;;;6.35;;
15474;SDS011;7839;50.462;9.678;2023-06-26T14:26:50;6.72;;;6.05;;
15474;SDS011;7839;50.462;9.678;2023-06-26T14:33:30;5.32;;;4.82;;
15474;SDS011;7839;50.462;9.678;2023-06-26T14:40:10;5.57;;;4.85;;
15474;SDS011;7839;50.462;9.678;2023-06-26T14:46:51;7.35;;;5.35;;
15474;SDS011;7839;50.462;9.678;2023-06-26T14:53:32;4.53;;;4.13;;
15474;SDS011;7839;50.462;9.678;2023-06-26T15:00:12;4.35;;;3.95;;
15474;SDS011;7839;50.462;9.678;2023-06-26T15:06:53;5.57;;;3.83;;
15474;SDS011;7839;50.462;9.678;2023-06-26T15:13:34;7.50;;;3.80;;
15474;SDS011;7839;50.462;9.678;2023-06-26T15:20:15;5.18;;;3.72;;
15474;SDS011;7839;50.462;9.678;2023-06-26T15:26:55;5.50;;;3.50;;
15474;SDS011;7839;50.462;9.678;2023-06-26T15:33:35;3.15;;;2.85;;
15474;SDS011;7839;50.462;9.678;2023-06-26T15:40:15;3.28;;;2.95;;
15474;SDS011;7839;50.462;9.678;2023-06-26T15:46:55;2.95;;;2.70;;
15474;SDS011;7839;50.462;9.678;2023-06-26T15:53:37;5.30;;;2.35;;
15474;SDS011;7839;50.462;9.678;2023-06-26T16:00:18;2.55;;;2.28;;
15474;SDS011;7839;50.462;9.678;2023-06-26T16:06:58;4.82;;;2.15;;
15474;SDS011;7839;50.462;9.678;2023-06-26T16:13:38;4.85;;;2.38;;
15474;SDS011;7839;50.462;9.678;2023-06-26T16:20:18;3.67;;;2.45;;
15474;SDS011;7839;50.462;9.678;2023-06-26T16:26:59;5.07;;;2.58;;
15474;SDS011;7839;50.462;9.678;2023-06-26T16:33:39;3.97;;;2.67;;
15474;SDS011;7839;50.462;9.678;2023-06-26T16:40:19;5.07;;;2.53;;
15474;SDS011;7839;50.462;9.678;2023-06-26T16:47:01;4.70;;;2.10;;
15474;SDS011;7839;50.462;9.678;2023-06-26T16:53:41;1.90;;;1.77;;
15474;SDS011;7839;50.462;9.678;2023-06-26T17:00:22;5.22;;;2.20;;
15474;SDS011;7839;50.462;9.678;2023-06-26T17:07:02;5.90;;;1.80;;
15474;SDS011;7839;50.462;9.678;2023-06-26T17:13:43;5.93;;;2.47;;
15474;SDS011;7839;50.462;9.678;2023-06-26T17:20:23;1.80;;;1.65;;
15474;SDS011;7839;50.462;9.678;2023-06-26T17:27:07;4.03;;;2.00;;
15474;SDS011;7839;50.462;9.678;2023-06-26T17:33:48;6.05;;;2.17;;
15474;SDS011;7839;50.462;9.678;2023-06-26T17:40:29;3.00;;;2.00;;
15474;SDS011;7839;50.462;9.678;2023-06-26T17:47:09;3.13;;;2.20;;
15474;SDS011;7839;50.462;9.678;2023-06-26T17:53:50;2.38;;;2.10;;
15474;SDS011;7839;50.462;9.678;2023-06-26T18:00:30;3.38;;;1.83;;
15474;SDS011;7839;50.462;9.678;2023-06-26T18:07:11;4.45;;;2.10;;
15474;SDS011;7839;50.462;9.678;2023-06-26T18:13:51;2.00;;;1.80;;
15474;SDS011;7839;50.462;9.678;2023-06-26T18:20:31;5.97;;;2.20;;
15474;SDS011;7839;50.462;9.678;2023-06-26T18:27:11;3.47;;;1.73;;
15474;SDS011;7839;50.462;9.678;2023-06-26T18:33:52;3.20;;;1.73;;
15474;SDS011;7839;50.462;9.678;2023-06-26T18:40:32;3.17;;;1.83;;
15474;SDS011;7839;50.462;9.678;2023-06-26T18:47:12;2.20;;;1.60;;
15474;SDS011;7839;50.462;9.678;2023-06-26T18:53:52;3.70;;;1.77;;
15474;SDS011;7839;50.462;9.678;2023-06-26T19:00:32;2.63;;;1.67;;
15474;SDS011;7839;50.462;9.678;2023-06-26T19:07:13;3.23;;;1.80;;
15474;SDS011;7839;50.462;9.678;2023-06-26T19:13:53;3.10;;;1.30;;
15474;SDS011;7839;50.462;9.678;2023-06-26T19:20:33;5.10;;;1.63;;
15474;SDS011;7839;50.462;9.678;2023-06-26T19:27:13;2.10;;;1.40;;
15474;SDS011;7839;50.462;9.678;2023-06-26T19:33:54;1.73;;;1.27;;
15474;SDS011;7839;50.462;9.678;2023-06-26T19:40:35;3.10;;;1.70;;
15474;SDS011;7839;50.462;9.678;2023-06-26T19:47:15;1.83;;;1.40;;
15474;SDS011;7839;50.462;9.678;2023-06-26T19:53:55;2.60;;;1.10;;
15474;SDS011;7839;50.462;9.678;2023-06-26T20:00:36;2.60;;;1.70;;
15474;SDS011;7839;50.462;9.678;2023-06-26T20:07:17;2.33;;;1.33;;
15474;SDS011;7839;50.462;9.678;2023-06-26T20:13:58;5.77;;;1.50;;
15474;SDS011;7839;50.462;9.678;2023-06-26T20:20:38;2.30;;;1.10;;
15474;SDS011;7839;50.462;9.678;2023-06-26T20:27:20;2.47;;;1.27;;
15474;SDS011;7839;50.462;9.678;2023-06-26T20:34:00;4.10;;;1.30;;
15474;SDS011;7839;50.462;9.678;2023-06-26T20:40:40;2.57;;;1.53;;
15474;SDS011;7839;50.462;9.678;2023-06-26T20:47:21;3.97;;;1.23;;
15474;SDS011;7839;50.462;9.678;2023-06-26T20:54:03;3.03;;;1.20;;
15474;SDS011;7839;50.462;9.678;2023-06-26T21:00:43;2.43;;;1.70;;
15474;SDS011;7839;50.462;9.678;2023-06-26T21:07:24;2.43;;;1.23;;
15474;SDS011;7839;50.462;9.678;2023-06-26T21:14:04;2.00;;;1.20;;
15474;SDS011;7839;50.462;9.678;2023-06-26T21:20:44;2.37;;;1.13;;
15474;SDS011;7839;50.462;9.678;2023-06-26T21:27:25;5.23;;;1.50;;
15474;SDS011;7839;50.462;9.678;2023-06-26T21:34:05;1.97;;;1.10;;
15474;SDS011;7839;50.462;9.678;2023-06-26T21:40:45;3.07;;;1.07;;
15474;SDS011;7839;50.462;9.678;2023-06-26T21:47:25;1.83;;;1.43;;
15474;SDS011;7839;50.462;9.678;2023-06-26T21:54:06;1.67;;;1.43;;
15474;SDS011;7839;50.462;9.678;2023-06-26T22:00:46;1.63;;;1.10;;
15474;SDS011;7839;50.462;9.678;2023-06-26T22:07:27;5.83;;;1.63;;
15474;SDS011;7839;50.462;9.678;2023-06-26T22:14:07;1.93;;;1.43;;
15474;SDS011;7839;50.462;9.678;2023-06-26T22:20:47;2.37;;;1.53;;
15474;SDS011;7839;50.462;9.678;2023-06-26T22:27:29;2.60;;;1.47;;
15474;SDS011;7839;50.462;9.678;2023-06-26T22:34:09;2.70;;;1.20;;
15474;SDS011;7839;50.462;9.678;2023-06-26T22:40:49;1.67;;;1.13;;
15474;SDS011;7839;50.462;9.678;2023-06-26T22:47:30;1.50;;;1.40;;
15474;SDS011;7839;50.462;9.678;2023-06-26T22:54:10;2.17;;;1.33;;
15474;SDS011;7839;50.462;9.678;2023-06-26T23:00:50;1.47;;;1.20;;
15474;SDS011;7839;50.462;9.678;2023-06-26T23:07:32;1.10;;;1.00;;
15474;SDS011;7839;50.462;9.678;2023-06-26T23:14:15;1.08;;;0.98;;
15474;SDS011;7839;50.462;9.678;2023-06-26T23:20:56;0.82;;;0.82;;
15474;SDS011;7839;50.462;9.678;2023-06-26T23:27:36;2.58;;;1.52;;
15474;SDS011;7839;50.462;9.678;2023-06-26T23:34:21;1.20;;;1.10;;
15474;SDS011;7839;50.462;9.678;2023-06-26T23:41:01;0.80;;;0.80;;
15474;SDS011;7839;50.462;9.678;2023-06-26T23:47:42;0.73;;;0.73;;
15474;SDS011;7839;50.462;9.678;2023-06-26T23:54:24;1.02;;;1.00;;
